Time;durP1;ratioP1;P1;durP2;ratioP2;P2;SDS_P1;SDS_P2;PMS_P1;PMS_P2;Temp;Humidity;BMP_temperature;BMP_pressure;BME280_temperature;BME280_humidity;BME280_pressure;Samples;Min_cycle;Max_cycle;Signal;HPM_P1;HPM_P2
2023/06/05 00:00:40;;;;;;;5.03;1.50;;;;;;;21.07;51.55;99308.25;5050863;28;20119;-81
2023/06/05 00:03:06;;;;;;;7.25;1.15;;;;;;;21.02;51.64;99313.25;5050821;28;20060;-81
2023/06/05 00:05:31;;;;;;;3.75;1.30;;;;;;;21.02;51.83;99317.72;5034286;28;20033;-81
2023/06/05 00:07:57;;;;;;;3.80;1.15;;;;;;;20.98;52.08;99309.25;5050916;28;20032;-81
2023/06/05 00:10:24;;;;;;;6.20;1.52;;;;;;;20.97;51.83;99307.63;5034422;28;20446;-81
2023/06/05 00:12:49;;;;;;;4.63;1.60;;;;;;;20.96;51.70;99313.94;5051025;28;20029;-81
2023/06/05 00:15:15;;;;;;;10.02;1.20;;;;;;;20.88;52.01;99303.34;5050938;28;20345;-81
2023/06/05 00:17:41;;;;;;;7.10;1.20;;;;;;;20.93;52.08;99311.59;5050585;28;20086;-80
2023/06/05 00:20:09;;;;;;;4.35;1.33;;;;;;;20.89;52.11;99308.47;5050566;28;20109;-74
2023/06/05 00:22:35;;;;;;;3.28;1.10;;;;;;;20.85;52.45;99311.63;5052368;28;20021;-82
2023/06/05 00:25:00;;;;;;;4.82;1.27;;;;;;;20.87;52.05;99312.28;5017846;28;20123;-83
2023/06/05 00:27:30;;;;;;;5.82;1.27;;;;;;;20.78;51.61;99299.03;5051900;28;20053;-83
2023/06/05 00:29:56;;;;;;;4.15;1.20;;;;;;;20.79;52.31;99305.16;5034732;28;20025;-83
2023/06/05 00:32:21;;;;;;;4.97;1.02;;;;;;;20.80;52.46;99306.84;5051320;28;20036;-83
2023/06/05 00:34:49;;;;;;;3.67;1.05;;;;;;;20.79;52.43;99299.84;5052531;28;20495;-84
2023/06/05 00:37:15;;;;;;;6.47;1.30;;;;;;;20.75;52.30;99294.06;5052142;28;20028;-83
2023/06/05 00:39:40;;;;;;;3.10;1.20;;;;;;;20.76;52.08;99295.75;5034656;28;20060;-84
2023/06/05 00:42:07;;;;;;;7.35;1.58;;;;;;;20.73;52.07;99287.25;5052549;28;20040;-83
2023/06/05 00:44:33;;;;;;;2.83;1.13;;;;;;;20.66;52.00;99287.13;5054656;28;20075;-84
2023/06/05 00:46:59;;;;;;;3.08;1.40;;;;;;;20.67;52.17;99296.75;5037734;28;20033;-83
2023/06/05 00:49:25;;;;;;;4.82;1.20;;;;;;;20.65;51.83;99301.38;5054720;28;20094;-83
2023/06/05 00:51:50;;;;;;;5.10;1.27;;;;;;;20.63;52.12;99291.91;5038425;28;20454;-83
2023/06/05 00:54:17;;;;;;;2.95;1.20;;;;;;;20.56;52.13;99286.47;5021612;28;20056;-84
2023/06/05 00:56:42;;;;;;;5.45;1.67;;;;;;;20.52;51.95;99290.44;5037698;28;20492;-83
2023/06/05 00:59:08;;;;;;;3.00;1.27;;;;;;;20.56;52.00;99300.53;5054416;28;20036;-83
2023/06/05 01:01:34;;;;;;;4.88;1.42;;;;;;;20.51;51.77;99294.06;5037967;28;20025;-83
2023/06/05 01:04:00;;;;;;;4.90;1.15;;;;;;;20.50;51.99;99306.50;5054208;28;20048;-83
2023/06/05 01:06:30;;;;;;;5.45;1.73;;;;;;;20.45;52.35;99292.09;5054253;28;20035;-83
2023/06/05 01:08:56;;;;;;;6.43;2.22;;;;;;;20.50;52.36;99297.75;5022246;28;20044;-83
2023/06/05 01:11:28;;;;;;;9.15;4.07;;;;;;;20.50;52.28;99297.75;5021637;28;20037;-83
2023/06/05 01:14:20;;;;;;;11.20;5.90;;;;;;;20.49;52.00;99299.53;5038119;28;20484;-82
2023/06/05 01:16:53;;;;;;;10.40;6.07;;;;;;;20.47;51.99;99295.41;5055366;28;20103;-82
2023/06/05 01:19:19;;;;;;;11.07;6.03;;;;;;;20.45;52.11;99295.59;5038832;28;20033;-82
2023/06/05 01:21:45;;;;;;;17.13;7.80;;;;;;;20.45;52.04;99295.59;5054500;28;20025;-82
2023/06/05 01:24:13;;;;;;;14.65;9.23;;;;;;;20.42;51.98;99291.44;5037664;28;20064;-82
2023/06/05 01:27:08;;;;;;;15.73;9.70;;;;;;;20.39;52.16;99296.25;5053996;28;20102;-82
2023/06/05 01:30:00;;;;;;;17.90;11.38;;;;;;;20.35;52.35;99287.81;5036735;28;20032;-84
2023/06/05 01:32:53;;;;;;;16.95;11.70;;;;;;;20.33;52.07;99286.31;5051900;28;20060;-84
2023/06/05 01:35:19;;;;;;;16.88;10.88;;;;;;;20.23;52.47;99274.03;5053404;28;20025;-84
2023/06/05 01:37:48;;;;;;;22.65;12.10;;;;;;;20.31;52.74;99297.06;5053075;28;20162;-83
2023/06/05 01:40:15;;;;;;;16.33;11.18;;;;;;;20.35;52.55;99293.09;5036598;28;20025;-83
2023/06/05 01:42:41;;;;;;;17.60;10.43;;;;;;;20.31;52.41;99286.47;5036473;28;20115;-83
2023/06/05 01:45:08;;;;;;;16.42;9.65;;;;;;;20.28;52.24;99292.09;5052655;28;20060;-83
2023/06/05 01:47:35;;;;;;;16.80;8.77;;;;;;;20.25;52.35;99292.44;5036030;28;20037;-83
2023/06/05 01:50:00;;;;;;;11.90;7.97;;;;;;;20.21;51.92;99293.78;5036500;28;20135;-83
2023/06/05 01:52:26;;;;;;;13.70;8.65;;;;;;;20.25;52.40;99300.38;5052675;28;20047;-83
2023/06/05 01:54:52;;;;;;;15.35;8.45;;;;;;;20.21;52.34;99288.47;5051885;28;20036;-83
2023/06/05 01:57:18;;;;;;;14.27;9.05;;;;;;;20.19;52.28;99288.63;5049641;28;20056;-83
2023/06/05 01:59:45;;;;;;;16.95;10.85;;;;;;;20.20;52.49;99284.16;5017402;28;20404;-83
2023/06/05 02:02:11;;;;;;;15.67;10.83;;;;;;;20.25;52.60;99292.44;5036872;28;20040;-84
2023/06/05 02:04:37;;;;;;;18.02;10.60;;;;;;;20.27;52.40;99294.91;5036607;28;20025;-83
2023/06/05 02:07:05;;;;;;;15.32;9.98;;;;;;;20.24;52.08;99285.47;5053067;28;20025;-83
2023/06/05 02:09:33;;;;;;;15.90;9.23;;;;;;;20.25;52.25;99287.13;5053321;28;20036;-84
2023/06/05 02:12:03;;;;;;;16.20;8.77;;;;;;;20.21;52.02;99286.66;5036678;28;20032;-85
2023/06/05 02:14:31;;;;;;;11.30;7.75;;;;;;;20.21;52.27;99284.00;5052961;28;20071;-83
2023/06/05 02:16:58;;;;;;;10.07;6.70;;;;;;;20.28;52.34;99291.28;5052918;28;20021;-83
2023/06/05 02:19:24;;;;;;;13.43;7.22;;;;;;;20.25;51.88;99287.13;5052849;28;20125;-83
2023/06/05 02:21:51;;;;;;;11.77;6.10;;;;;;;20.28;52.16;99293.94;5052966;28;20507;-83
2023/06/05 02:24:18;;;;;;;10.00;5.57;;;;;;;20.23;52.03;99287.31;5053915;28;20110;-83
2023/06/05 02:26:44;;;;;;;8.30;5.40;;;;;;;20.30;52.26;99291.94;5036017;28;20056;-83
2023/06/05 02:29:10;;;;;;;10.02;4.57;;;;;;;20.30;52.10;99298.06;5052530;28;20041;-83
2023/06/05 02:31:36;;;;;;;8.52;4.47;;;;;;;20.33;52.21;99300.38;5036157;28;20037;-83
2023/06/05 02:34:02;;;;;;;8.00;4.28;;;;;;;20.31;52.30;99293.59;5036023;28;20064;-83
2023/06/05 02:36:27;;;;;;;8.75;3.78;;;;;;;20.36;52.41;99294.75;5052627;28;20549;-83
2023/06/05 02:38:53;;;;;;;9.25;3.80;;;;;;;20.33;52.25;99286.31;5052257;28;20048;-83
2023/06/05 02:41:21;;;;;;;6.30;3.13;;;;;;;20.38;52.25;99292.78;5035652;28;20385;-83
2023/06/05 02:43:46;;;;;;;5.55;3.10;;;;;;;20.40;52.22;99285.47;5052284;28;20040;-84
2023/06/05 02:46:12;;;;;;;7.18;3.45;;;;;;;20.45;51.82;99289.44;5052865;28;20033;-83
2023/06/05 02:48:37;;;;;;;7.60;4.00;;;;;;;20.46;51.98;99289.25;5035698;28;20048;-83
2023/06/05 02:51:03;;;;;;;10.63;4.85;;;;;;;20.50;51.92;99292.44;5052324;28;20496;-83
2023/06/05 02:53:29;;;;;;;7.57;4.13;;;;;;;20.48;51.96;99286.44;5052149;28;20053;-83
2023/06/05 02:55:55;;;;;;;9.15;4.43;;;;;;;20.55;51.56;99290.09;5035623;28;20025;-83
2023/06/05 02:58:21;;;;;;;11.02;4.85;;;;;;;20.57;51.68;99288.09;5051917;28;20063;-83
2023/06/05 03:00:47;;;;;;;7.90;4.18;;;;;;;20.66;51.33;99299.56;5019092;28;20060;-83
2023/06/05 03:03:16;;;;;;;12.23;5.10;;;;;;;20.86;51.13;99302.66;5035357;28;20056;-83
2023/06/05 03:05:44;;;;;;;10.75;4.72;;;;;;;21.04;50.42;99300.63;5053359;28;20029;-83
2023/06/05 03:08:10;;;;;;;7.65;4.95;;;;;;;21.14;50.35;99298.63;5053156;28;20033;-83
2023/06/05 03:10:35;;;;;;;8.98;5.63;;;;;;;21.37;49.95;99291.72;5053234;28;20033;-83
2023/06/05 03:13:01;;;;;;;9.43;5.20;;;;;;;21.48;49.29;99289.50;5035004;28;20515;-83
2023/06/05 03:15:27;;;;;;;10.45;6.25;;;;;;;21.71;48.65;99299.34;5051686;28;20423;-83
2023/06/05 03:17:53;;;;;;;8.85;5.38;;;;;;;21.54;49.08;99295.13;5035291;28;20110;-83
2023/06/05 03:20:19;;;;;;;11.60;6.95;;;;;;;21.41;49.09;99282.38;5051627;28;20060;-83
2023/06/05 03:22:45;;;;;;;11.70;8.27;;;;;;;21.43;49.56;99285.72;5035079;28;20468;-83
2023/06/05 03:25:10;;;;;;;17.63;11.05;;;;;;;21.37;49.58;99283.75;5017562;28;20073;-84
2023/06/05 03:27:36;;;;;;;15.77;10.80;;;;;;;21.30;49.95;99279.13;5034708;28;20080;-82
2023/06/05 03:30:02;;;;;;;17.92;11.13;;;;;;;21.28;49.91;99278.44;5018895;28;20132;-83
2023/06/05 03:32:27;;;;;;;18.88;12.55;;;;;;;21.31;50.34;99290.56;5052731;28;20029;-83
2023/06/05 03:34:53;;;;;;;16.98;11.60;;;;;;;21.31;50.11;99287.91;5052354;28;20111;-83
2023/06/05 03:37:18;;;;;;;16.05;11.07;;;;;;;21.30;50.33;99287.09;5050569;28;20037;-84
2023/06/05 03:39:44;;;;;;;15.75;10.90;;;;;;;21.29;50.12;99282.78;5050601;28;20024;-84
2023/06/05 03:42:11;;;;;;;13.18;9.85;;;;;;;21.29;50.19;99279.31;5050844;28;20098;-84
2023/06/05 03:44:37;;;;;;;15.05;10.05;;;;;;;21.31;50.35;99280.75;5050952;28;20382;-83
2023/06/05 03:47:03;;;;;;;15.30;11.32;;;;;;;21.36;50.18;99277.59;5051253;28;20037;-82
2023/06/05 03:49:28;;;;;;;16.05;10.50;;;;;;;21.44;50.64;99288.19;5017751;28;20041;-69
2023/06/05 03:52:00;;;;;;;16.05;8.35;;;;;;;21.43;51.75;99286.53;5052269;28;20040;-69
2023/06/05 03:54:32;;;;;;;12.75;8.30;;;;;;;21.48;52.03;99284.22;5051308;28;20416;-71
2023/06/05 03:56:59;;;;;;;14.70;8.27;;;;;;;21.52;51.98;99284.69;5036097;28;20420;-70
2023/06/05 03:59:25;;;;;;;15.52;8.27;;;;;;;21.74;52.28;99280.41;5050964;28;20103;-70
2023/06/05 04:01:51;;;;;;;17.42;7.03;;;;;;;22.00;51.27;99287.22;5057326;28;20503;-67
2023/06/05 04:04:16;;;;;;;10.98;5.95;;;;;;;22.23;50.62;99279.22;5050827;28;20029;-69
2023/06/05 04:06:43;;;;;;;9.98;5.25;;;;;;;22.43;49.98;99276.91;5017838;28;20048;-72
2023/06/05 04:09:12;;;;;;;13.55;5.53;;;;;;;22.68;50.22;99280.16;5017914;28;20040;-73
2023/06/05 04:11:41;;;;;;;15.10;4.93;;;;;;;22.91;49.94;99282.75;5051198;28;20369;-80
2023/06/05 04:14:08;;;;;;;12.63;4.72;;;;;;;23.14;49.34;99279.19;5034227;28;20029;-72
2023/06/05 04:16:34;;;;;;;9.18;3.55;;;;;;;23.38;48.26;99282.53;5052815;28;20480;-71
2023/06/05 04:19:00;;;;;;;9.07;3.97;;;;;;;23.63;47.02;99280.38;5038066;28;20075;-69
2023/06/05 04:21:25;;;;;;;9.15;3.50;;;;;;;23.90;46.22;99278.00;5038189;28;20033;-71
2023/06/05 04:23:51;;;;;;;13.73;4.30;;;;;;;24.29;45.38;99287.38;5038164;28;20032;-77
2023/06/05 04:26:17;;;;;;;9.98;3.70;;;;;;;24.92;43.45;99287.41;5054172;28;20428;-78
2023/06/05 04:28:43;;;;;;;10.90;4.32;;;;;;;26.70;39.62;99278.41;5020303;28;20052;-78
2023/06/05 04:31:09;;;;;;;9.18;3.63;;;;;;;28.05;36.11;99290.22;5056174;28;20114;-78
2023/06/05 04:33:34;;;;;;;7.25;3.35;;;;;;;29.15;34.13;99281.53;5054641;28;20028;-78
2023/06/05 04:36:00;;;;;;;13.57;3.63;;;;;;;30.19;31.78;99287.78;5020922;28;20037;-78
2023/06/05 04:38:25;;;;;;;12.38;3.70;;;;;;;30.90;30.96;99283.28;5054705;28;20032;-78
2023/06/05 04:40:51;;;;;;;8.82;3.50;;;;;;;31.50;30.01;99289.31;5055672;28;20079;-78
2023/06/05 04:43:17;;;;;;;7.72;3.20;;;;;;;32.05;29.11;99277.09;5037685;28;20044;-77
2023/06/05 04:45:42;;;;;;;13.60;3.28;;;;;;;32.62;27.76;99284.19;5055693;28;20029;-77
2023/06/05 04:48:08;;;;;;;9.57;3.53;;;;;;;33.27;26.60;99274.56;5055749;28;20461;-78
2023/06/05 04:50:35;;;;;;;9.27;3.15;;;;;;;33.87;25.61;99270.03;5054315;28;20025;-77
2023/06/05 04:53:01;;;;;;;10.68;3.53;;;;;;;34.29;25.34;99268.50;5054698;28;20037;-77
2023/06/05 04:55:27;;;;;;;10.13;3.50;;;;;;;34.72;24.81;99277.41;5037688;28;20424;-77
2023/06/05 04:57:53;;;;;;;11.00;2.80;;;;;;;35.22;24.09;99269.78;5054096;28;20025;-78
2023/06/05 05:00:19;;;;;;;10.82;3.08;;;;;;;35.69;23.29;99277.00;5054280;28;20055;-78
2023/06/05 05:02:44;;;;;;;11.88;3.38;;;;;;;36.10;22.68;99270.75;5021506;28;20087;-78
2023/06/05 05:05:13;;;;;;;11.88;3.60;;;;;;;36.28;22.86;99274.03;5021209;28;20496;-78
2023/06/05 05:07:40;;;;;;;15.07;3.72;;;;;;;36.71;22.36;99282.66;5054475;28;20090;-78
2023/06/05 05:10:06;;;;;;;;;;;;;;;37.04;22.02;99283.13;5038095;28;20025;-79
2023/06/05 05:12:31;;;;;;;7.57;3.28;;;;;;;37.22;22.00;99279.78;5054357;28;19909;-78
2023/06/05 05:14:58;;;;;;;10.60;3.03;;;;;;;37.75;21.17;99275.66;5021053;28;20498;-80
2023/06/05 05:17:24;;;;;;;10.13;3.40;;;;;;;38.11;21.03;99278.09;5037498;28;20029;-79
2023/06/05 05:19:49;;;;;;;10.20;3.28;;;;;;;38.15;20.62;99284.59;5037420;28;20765;-79
2023/06/05 05:22:15;;;;;;;9.73;3.33;;;;;;;38.24;20.69;99282.91;5053929;28;20032;-78
2023/06/05 05:24:41;;;;;;;10.50;3.65;;;;;;;38.48;20.29;99276.69;5037516;28;20040;-80
2023/06/05 05:27:08;;;;;;;12.57;6.63;;;;;;;38.87;20.03;99286.59;5036336;28;20052;-79
2023/06/05 05:29:33;;;;;;;16.40;4.85;;;;;;;38.99;19.91;99281.56;5054879;28;20033;-79
2023/06/05 05:31:59;;;;;;;9.05;3.63;;;;;;;39.22;19.90;99279.94;5052533;28;20492;-80
2023/06/05 05:34:24;;;;;;;11.38;3.83;;;;;;;39.54;19.73;99283.88;5047800;28;20031;-79
2023/06/05 05:36:50;;;;;;;7.03;3.33;;;;;;;39.82;19.35;99291.34;5017156;28;20040;-72
2023/06/05 05:39:16;;;;;;;11.98;4.38;;;;;;;39.76;19.49;99287.91;5033659;28;20083;-72
2023/06/05 05:41:41;;;;;;;12.45;3.75;;;;;;;39.87;19.09;99286.63;5016657;28;20382;-71
2023/06/05 05:44:07;;;;;;;12.98;4.82;;;;;;;39.89;19.06;99289.88;5049930;28;20128;-71
2023/06/05 05:46:33;;;;;;;12.98;5.15;;;;;;;40.05;18.92;99285.00;5033506;28;20405;-72
2023/06/05 05:48:58;;;;;;;11.93;3.90;;;;;;;40.19;19.33;99293.22;5016932;28;20128;-68
2023/06/05 05:51:24;;;;;;;13.18;3.70;;;;;;;40.48;18.98;99292.19;5034480;28;20037;-73
2023/06/05 05:53:49;;;;;;;9.93;3.13;;;;;;;40.71;19.12;99293.13;5051574;28;20029;-76
2023/06/05 05:56:15;;;;;;;12.95;3.08;;;;;;;40.95;18.89;99289.38;5052015;28;20037;-72
2023/06/05 05:58:41;;;;;;;14.07;3.72;;;;;;;41.09;18.63;99275.66;5033183;28;20401;-71
2023/06/05 06:01:06;;;;;;;10.77;3.08;;;;;;;41.31;18.67;99283.13;5033261;28;20036;-70
2023/06/05 06:03:35;;;;;;;12.20;3.20;;;;;;;41.57;18.24;99281.44;5049541;28;20045;-72
2023/06/05 06:06:02;;;;;;;13.10;3.08;;;;;;;41.58;18.26;99274.84;5049497;28;20053;-75
2023/06/05 06:08:27;;;;;;;7.20;2.97;;;;;;;41.44;18.04;99286.97;5032922;28;20045;-74
2023/06/05 06:10:54;;;;;;;8.07;3.23;;;;;;;41.35;18.37;99279.47;5033318;28;20041;-75
2023/06/05 06:13:20;;;;;;;10.50;3.05;;;;;;;41.20;18.31;99277.88;5065610;28;20029;-75
2023/06/05 06:15:46;;;;;;;15.17;3.60;;;;;;;41.16;18.52;99279.59;5032928;28;20033;-70
2023/06/05 06:18:12;;;;;;;10.93;3.50;;;;;;;41.13;18.51;99280.22;5033731;28;20115;-72
2023/06/05 06:20:38;;;;;;;9.15;3.45;;;;;;;41.18;18.61;99276.56;5049181;28;20052;-71
2023/06/05 06:23:03;;;;;;;14.48;3.45;;;;;;;41.20;18.31;99286.09;5032608;28;20484;-67
2023/06/05 06:25:31;;;;;;;9.27;3.13;;;;;;;41.18;18.36;99282.84;5032292;28;20049;-73
2023/06/05 06:28:00;;;;;;;10.18;3.70;;;;;;;41.23;18.43;99292.88;5016243;28;20052;-76
2023/06/05 06:30:27;;;;;;;13.60;3.83;;;;;;;41.22;18.28;99285.78;5016243;28;20171;-77
2023/06/05 06:32:53;;;;;;;;;;;;;;;41.20;18.58;99279.81;5033189;28;20487;-73
2023/06/05 06:35:19;;;;;;;14.02;3.47;;;;;;;41.36;18.33;99281.09;5065819;28;19922;-75
2023/06/05 06:37:45;;;;;;;18.58;4.22;;;;;;;41.57;17.81;99280.63;5032412;28;20040;-71
2023/06/05 06:40:11;;;;;;;14.30;3.70;;;;;;;41.45;17.56;99277.63;5032920;28;20033;-72
2023/06/05 06:42:37;;;;;;;16.33;3.90;;;;;;;41.52;17.89;99281.56;5032533;28;20068;-73
2023/06/05 06:45:04;;;;;;;20.33;3.65;;;;;;;41.51;17.92;99277.19;5048641;28;20041;-74
2023/06/05 06:47:30;;;;;;;15.68;4.13;;;;;;;41.48;17.54;99272.34;5049488;28;20401;-74
2023/06/05 06:49:56;;;;;;;12.60;3.90;;;;;;;41.45;17.60;99266.66;5015822;28;20112;-73
2023/06/05 06:52:22;;;;;;;13.20;3.55;;;;;;;41.46;17.59;99277.31;5032427;28;20045;-76
2023/06/05 06:54:48;;;;;;;17.77;4.03;;;;;;;41.44;17.60;99271.34;5031630;28;20424;-75
2023/06/05 06:57:13;;;;;;;12.77;4.35;;;;;;;41.45;17.72;99269.41;5015660;28;20087;-76
2023/06/05 06:59:41;;;;;;;14.05;3.85;;;;;;;41.37;17.61;99271.78;5033292;28;20052;-77
2023/06/05 07:02:39;;;;;;;18.92;4.40;;;;;;;41.23;17.67;99266.31;5015799;28;20033;-76
2023/06/05 07:05:06;;;;;;;17.80;5.07;;;;;;;41.18;18.29;99263.69;4975553;28;20457;-75
2023/06/05 07:07:31;;;;;;;24.95;5.68;;;;;;;41.13;18.00;99269.25;4991785;28;20034;-75
2023/06/05 07:09:58;;;;;;;16.60;6.32;;;;;;;41.01;18.32;99277.22;4975074;28;20061;-77
2023/06/05 07:12:23;;;;;;;15.88;4.95;;;;;;;40.86;17.95;99270.94;4991626;28;20061;-76
2023/06/05 07:14:49;;;;;;;17.83;4.78;;;;;;;40.69;17.80;99268.78;4991498;28;20049;-75
2023/06/05 07:17:14;;;;;;;8.98;4.57;;;;;;;40.61;18.11;99268.69;4959440;28;20592;-75
2023/06/05 07:19:40;;;;;;;16.27;5.15;;;;;;;40.44;18.21;99261.09;4991448;28;20030;-76
2023/06/05 07:22:05;;;;;;;17.67;4.95;;;;;;;40.26;18.22;99265.47;4975299;28;20431;-75
2023/06/05 07:24:32;;;;;;;12.80;4.72;;;;;;;40.07;17.87;99266.34;4991623;28;20117;-75
2023/06/05 07:26:59;;;;;;;16.88;5.00;;;;;;;39.96;18.42;99262.97;4974695;28;20097;-74
2023/06/05 07:29:25;;;;;;;15.07;4.30;;;;;;;39.69;18.22;99268.34;4974806;28;20039;-75
2023/06/05 07:31:51;;;;;;;12.80;4.00;;;;;;;39.43;18.38;99264.06;4975147;28;20038;-76
2023/06/05 07:34:19;;;;;;;12.00;4.38;;;;;;;39.37;18.82;99258.97;4975051;28;20074;-76
2023/06/05 07:36:46;;;;;;;12.82;3.97;;;;;;;39.19;19.11;99258.66;4974799;28;20042;-75
2023/06/05 07:39:12;;;;;;;18.52;4.20;;;;;;;39.08;19.45;99266.19;4974887;28;20121;-75
2023/06/05 07:41:39;;;;;;;14.40;3.30;;;;;;;38.82;19.11;99264.84;5026223;28;20390;-76
2023/06/05 07:44:06;;;;;;;9.18;3.55;;;;;;;38.65;19.49;99259.88;5015086;28;20268;-78
2023/06/05 07:46:31;;;;;;;7.50;3.43;;;;;;;38.60;19.57;99265.34;5047792;28;20074;-78
2023/06/05 07:48:57;;;;;;;13.20;3.17;;;;;;;38.52;19.38;99264.91;5064678;28;20300;-75
2023/06/05 07:51:22;;;;;;;7.50;2.90;;;;;;;38.32;19.64;99265.13;5032373;28;20037;-76
2023/06/05 07:53:48;;;;;;;9.73;3.08;;;;;;;38.06;19.83;99261.78;5047545;28;20555;-75
2023/06/05 07:56:16;;;;;;;11.23;2.80;;;;;;;38.07;20.25;99269.66;5032531;28;20038;-76
2023/06/05 07:58:42;;;;;;;10.68;2.75;;;;;;;38.07;19.68;99263.41;5015243;28;20057;-76
2023/06/05 08:01:08;;;;;;;8.75;2.50;;;;;;;37.94;19.79;99262.97;5031110;28;20504;-75
2023/06/05 08:03:33;;;;;;;9.68;2.50;;;;;;;38.04;20.05;99275.69;5014586;28;20041;-75
2023/06/05 08:05:59;;;;;;;6.50;2.60;;;;;;;37.71;20.09;99282.78;5031168;28;20052;-75
2023/06/05 08:08:24;;;;;;;8.80;2.45;;;;;;;37.77;20.21;99274.28;5014194;28;20108;-75
2023/06/05 08:10:50;;;;;;;11.25;2.47;;;;;;;37.71;20.12;99258.25;5030978;28;20041;-80
2023/06/05 08:13:16;;;;;;;5.25;2.63;;;;;;;37.71;20.04;99261.78;5047321;28;20079;-77
2023/06/05 08:15:42;;;;;;;5.72;2.42;;;;;;;37.74;19.78;99268.59;5047419;28;20071;-76
2023/06/05 08:18:07;;;;;;;7.22;2.42;;;;;;;37.76;19.98;99264.47;5031036;28;20034;-77
2023/06/05 08:20:33;;;;;;;5.63;2.10;;;;;;;37.69;19.45;99269.44;5014071;28;20034;-75
2023/06/05 08:22:58;;;;;;;7.15;2.08;;;;;;;37.50;19.58;99261.09;5031969;28;20067;-75
2023/06/05 08:25:24;;;;;;;6.93;2.10;;;;;;;37.32;19.55;99259.84;5031335;28;20505;-76
2023/06/05 08:27:50;;;;;;;3.45;1.67;;;;;;;37.15;19.81;99264.81;5063675;28;20053;-78
2023/06/05 08:30:16;;;;;;;7.70;2.20;;;;;;;36.81;19.95;99257.34;5064125;28;20508;-75
2023/06/05 08:32:43;;;;;;;7.63;2.10;;;;;;;36.76;19.57;99261.72;5047342;28;20424;-76
2023/06/05 08:35:09;;;;;;;10.87;2.43;;;;;;;36.72;19.39;99259.78;5047336;28;20451;-75
2023/06/05 08:37:34;;;;;;;4.75;1.90;;;;;;;36.64;19.64;99246.75;5030560;28;20588;-75
2023/06/05 08:40:05;;;;;;;7.07;2.50;;;;;;;36.54;19.54;99242.97;5030971;28;20061;-77
2023/06/05 08:42:31;;;;;;;6.80;2.28;;;;;;;36.34;19.77;99243.88;5031522;28;20120;-76
2023/06/05 08:44:57;;;;;;;8.50;3.67;;;;;;;36.24;19.99;99246.56;5032365;28;20041;-76
2023/06/05 08:47:24;;;;;;;10.68;3.50;;;;;;;36.24;20.27;99243.84;5030618;28;20436;-74
2023/06/05 08:49:51;;;;;;;7.45;4.00;;;;;;;36.20;19.49;99245.50;5014473;28;20603;-75
2023/06/05 08:52:17;;;;;;;7.80;3.65;;;;;;;36.10;20.36;99242.78;5030605;28;20065;-76
2023/06/05 08:54:43;;;;;;;6.28;3.28;;;;;;;35.94;20.01;99244.69;5046815;28;20037;-76
2023/06/05 08:57:08;;;;;;;10.43;3.13;;;;;;;35.89;20.43;99252.84;5047008;28;20036;-76
2023/06/05 08:59:34;;;;;;;13.55;2.83;;;;;;;35.73;19.79;99252.81;5014183;28;20037;-75
2023/06/05 09:02:00;;;;;;;9.13;2.30;;;;;;;35.60;19.63;99250.66;5047166;28;20574;-76
2023/06/05 09:04:29;;;;;;;5.07;1.98;;;;;;;35.43;19.76;99240.03;5050820;28;20068;-75
2023/06/05 09:07:01;;;;;;;4.57;1.80;;;;;;;35.24;19.77;99245.91;5018283;28;20029;-75
2023/06/05 09:09:26;;;;;;;3.58;1.90;;;;;;;34.85;20.32;99237.38;5034407;28;20032;-76
2023/06/05 09:12:05;;;;;;;2.47;1.52;;;;;;;34.65;20.41;99257.03;5017643;28;20034;-75
2023/06/05 09:14:31;;;;;;;5.70;2.10;;;;;;;34.54;20.60;99253.47;5050634;28;20029;-75
2023/06/05 09:16:57;;;;;;;4.75;1.65;;;;;;;34.40;20.51;99255.84;5033974;28;20051;-76
2023/06/05 09:19:26;;;;;;;3.70;1.70;;;;;;;34.24;21.03;99246.78;5033752;28;20072;-74
2023/06/05 09:21:53;;;;;;;3.42;1.70;;;;;;;34.17;21.10;99246.97;5018383;28;20052;-82
2023/06/05 09:24:19;;;;;;;4.35;1.67;;;;;;;34.03;21.86;99254.75;5033654;28;20045;-75
2023/06/05 09:27:05;;;;;;;2.90;1.58;;;;;;;33.89;21.97;99248.94;5017439;28;20045;-78
2023/06/05 09:29:36;;;;;;;8.50;1.70;;;;;;;33.86;22.29;99256.75;5033644;28;20091;-75
2023/06/05 09:32:09;;;;;;;3.42;1.65;;;;;;;33.56;22.82;99249.13;5033779;28;20026;-75
2023/06/05 09:34:38;;;;;;;3.78;1.80;;;;;;;33.29;23.07;99239.94;5050516;28;20021;-76
2023/06/05 09:37:13;;;;;;;5.32;1.67;;;;;;;32.77;23.82;99262.03;5017036;28;20116;-76
2023/06/05 09:39:40;;;;;;;3.63;1.70;;;;;;;32.51;23.99;99256.22;5033795;28;20036;-75
2023/06/05 09:42:06;;;;;;;7.22;1.67;;;;;;;32.37;23.96;99247.66;5017380;28;20132;-79
2023/06/05 09:44:33;;;;;;;5.63;1.75;;;;;;;32.31;24.04;99259.47;5017085;28;20319;-74
2023/06/05 09:47:00;;;;;;;5.75;1.80;;;;;;;32.16;24.34;99249.22;5016882;28;20034;-74
2023/06/05 09:49:32;;;;;;;4.47;1.85;;;;;;;32.20;24.48;99249.56;5050028;28;20045;-76
2023/06/05 09:51:59;;;;;;;4.78;1.85;;;;;;;31.99;24.41;99245.69;5033441;28;20479;-74
2023/06/05 09:54:28;;;;;;;5.40;1.85;;;;;;;31.99;24.63;99245.69;5016974;28;20065;-80
2023/06/05 09:56:57;;;;;;;3.95;1.63;;;;;;;31.93;24.83;99242.09;5049760;28;20195;-75
2023/06/05 09:59:28;;;;;;;5.18;1.65;;;;;;;31.60;24.68;99242.88;5017228;28;20077;-76
2023/06/05 10:01:54;;;;;;;3.05;1.70;;;;;;;31.32;24.96;99236.41;5050042;28;20030;-76
2023/06/05 10:04:22;;;;;;;4.03;1.67;;;;;;;31.09;25.07;99232.75;5033271;28;20116;-75
2023/06/05 10:06:48;;;;;;;6.10;2.17;;;;;;;31.08;25.64;99228.41;5016651;28;20044;-75
2023/06/05 10:09:14;;;;;;;5.50;2.00;;;;;;;31.01;25.69;99230.41;5049467;28;20128;-76
2023/06/05 10:11:41;;;;;;;9.98;2.13;;;;;;;30.97;25.91;99232.75;5032971;28;20039;-75
2023/06/05 10:14:06;;;;;;;6.85;1.90;;;;;;;30.83;26.30;99216.00;5015448;28;20048;-77
2023/06/05 10:16:32;;;;;;;5.57;1.80;;;;;;;30.75;26.60;99232.53;5033143;28;20112;-75
2023/06/05 10:18:58;;;;;;;5.35;1.92;;;;;;;30.57;27.19;99227.28;5049025;28;20488;-76
2023/06/05 10:21:25;;;;;;;7.13;1.60;;;;;;;30.51;27.69;99221.00;5016366;28;20044;-75
2023/06/05 10:24:05;;;;;;;4.28;2.17;;;;;;;30.45;27.89;99221.94;5032769;28;20035;-75
2023/06/05 10:26:54;;;;;;;5.10;2.00;;;;;;;30.39;28.43;99222.88;5032415;28;20036;-76
2023/06/05 10:29:50;;;;;;;5.50;1.80;;;;;;;30.15;28.81;99224.72;5032723;28;20496;-75
2023/06/05 10:33:01;;;;;;;6.95;2.17;;;;;;;29.97;29.24;99221.09;5033784;28;20033;-74
2023/06/05 10:35:34;;;;;;;6.70;1.83;;;;;;;29.97;28.99;99214.84;5028467;28;20088;-78
2023/06/05 10:38:22;;;;;;;8.13;2.08;;;;;;;29.87;29.29;99212.75;5032826;28;20104;-76
2023/06/05 10:40:57;;;;;;;5.35;1.90;;;;;;;29.88;29.21;99217.91;5018765;28;20483;-75
2023/06/05 10:43:27;;;;;;;4.07;2.00;;;;;;;29.68;29.86;99212.81;5015727;28;20037;-77
2023/06/05 10:45:53;;;;;;;9.82;1.88;;;;;;;29.72;29.69;99216.66;5032443;28;20091;-74
2023/06/05 10:48:18;;;;;;;4.85;2.00;;;;;;;29.61;30.24;99219.34;5016210;28;20048;-75
2023/06/05 10:50:44;;;;;;;3.63;2.00;;;;;;;29.46;30.19;99214.38;5049131;28;20401;-76
2023/06/05 10:53:48;;;;;;;9.18;2.00;;;;;;;29.34;30.98;99217.84;5048831;28;20034;-75
2023/06/05 10:59:17;;;;;;;7.43;2.30;;;;;;;29.14;31.60;99228.00;4991729;28;20037;-76
2023/06/05 11:01:43;;;;;;;4.65;2.03;;;;;;;29.01;31.96;99229.00;4975741;28;20444;-75
2023/06/05 11:04:08;;;;;;;5.90;1.92;;;;;;;29.07;32.17;99224.59;4992017;28;20074;-74
2023/06/05 11:06:34;;;;;;;5.38;2.10;;;;;;;29.11;32.02;99226.59;4991665;28;20405;-75
2023/06/05 11:09:13;;;;;;;4.60;1.95;;;;;;;28.95;31.81;99225.34;4975350;28;20561;-74
2023/06/05 11:11:57;;;;;;;4.47;2.10;;;;;;;28.84;31.35;99221.56;4975438;28;20050;-75
2023/06/05 11:14:24;;;;;;;4.60;1.80;;;;;;;28.77;30.68;99222.69;4975201;28;20563;-75
2023/06/05 11:16:49;;;;;;;4.15;1.90;;;;;;;28.63;30.18;99220.13;4975343;28;20088;-76
2023/06/05 11:19:22;;;;;;;6.97;1.73;;;;;;;28.45;30.01;99212.00;4975259;28;20465;-79
2023/06/05 11:22:03;;;;;;;7.35;1.70;;;;;;;28.46;29.63;99219.03;5007842;28;20031;-79
2023/06/05 11:24:28;;;;;;;4.13;1.60;;;;;;;28.46;29.38;99211.78;4975481;28;20088;-76
2023/06/05 11:26:54;;;;;;;13.35;1.70;;;;;;;28.37;29.14;99207.78;5010188;28;20492;-74
2023/06/05 11:29:20;;;;;;;8.75;1.67;;;;;;;28.42;28.63;99224.03;5031535;28;20467;-76
2023/06/05 11:31:50;;;;;;;3.35;1.67;;;;;;;28.46;27.92;99227.91;5048153;28;20037;-76
2023/06/05 11:34:16;;;;;;;13.50;2.17;;;;;;;28.52;27.22;99226.22;5015475;28;20033;-75